createdAt,value
2023-03-15T00:01:33.317Z,93942.75
2023-03-15T00:04:26.235Z,93938.47
2023-03-15T00:07:16.512Z,93925.25
2023-03-15T00:10:03.589Z,93927.56
2023-03-15T00:12:59.782Z,93925.13
2023-03-15T00:15:49.984Z,93913.13
2023-03-15T00:18:34.671Z,93910.69
2023-03-15T00:21:23.046Z,93921.69
2023-03-15T00:24:12.835Z,93914.53
2023-03-15T00:27:04.496Z,93919.78
2023-03-15T00:29:54.387Z,93923.06
2023-03-15T00:32:46.420Z,93925.78
2023-03-15T00:35:38.758Z,93908.09
2023-03-15T00:38:28.139Z,93916.63
2023-03-15T00:41:18.519Z,93911.38
2023-03-15T00:44:07.560Z,93902.38
2023-03-15T00:47:00.101Z,93904.06
2023-03-15T00:49:45.496Z,93902.53
2023-03-15T00:52:41.416Z,93902.97
2023-03-15T00:55:32.109Z,93889.44
2023-03-15T00:58:24.545Z,93894.75
2023-03-15T01:01:15.014Z,93898.47
2023-03-15T01:04:09.064Z,93893.91
2023-03-15T01:06:57.601Z,93886.28
2023-03-15T01:09:53.724Z,93880.88
2023-03-15T01:12:44.404Z,93880.72
2023-03-15T01:15:37.009Z,93877.50
2023-03-15T01:18:24.405Z,93872.91
2023-03-15T01:21:18.707Z,93858.81
2023-03-15T01:24:09.273Z,93855.38
2023-03-15T01:26:56.135Z,93854.63
2023-03-15T01:29:47.076Z,93843.97
2023-03-15T01:32:39.887Z,93857.31
2023-03-15T01:35:28.035Z,93851.28
2023-03-15T01:38:22.403Z,93851.91
2023-03-15T01:41:22.042Z,93837.78
2023-03-15T01:44:07.280Z,93837.56
2023-03-15T01:46:57.166Z,93837.56
2023-03-15T01:49:40.704Z,93833.84
2023-03-15T01:52:37.609Z,93834.00
2023-03-15T01:55:32.691Z,93826.34
2023-03-15T01:58:22.707Z,93824.44
2023-03-15T02:01:12.849Z,93816.69
2023-03-15T02:04:10.779Z,93820.28
2023-03-15T02:07:02.649Z,93823.53
2023-03-15T02:09:54.637Z,93818.06
2023-03-15T02:12:48.776Z,93808.97
2023-03-15T02:15:39.197Z,93809.50
2023-03-15T02:18:29.785Z,93794.25
2023-03-15T02:21:33.376Z,93788.72
2023-03-15T02:24:36.741Z,93794.34
2023-03-15T02:27:34.656Z,93790.88
2023-03-15T02:30:29.281Z,93792.16
2023-03-15T02:33:27.173Z,93794.38
2023-03-15T02:36:23.626Z,93785.66
2023-03-15T02:39:19.210Z,93788.22
2023-03-15T02:42:13.145Z,93790.09
2023-03-15T02:45:01.655Z,93780.69
2023-03-15T02:47:52.926Z,93783.00
2023-03-15T02:50:40.730Z,93784.34
2023-03-15T02:53:28.167Z,93793.69
2023-03-15T02:56:22.659Z,93792.09
2023-03-15T02:59:17.420Z,93785.25
2023-03-15T03:02:03.684Z,93784.59
2023-03-15T03:04:53.094Z,93783.75
2023-03-15T03:07:37.987Z,93779.81
2023-03-15T03:10:27.300Z,93774.94
2023-03-15T03:13:17.024Z,93768.06
2023-03-15T03:16:06.392Z,93765.44
2023-03-15T03:18:58.128Z,93759.63
2023-03-15T03:21:44.888Z,93752.06
2023-03-15T03:24:33.353Z,93759.38
2023-03-15T03:27:24.139Z,93749.56
2023-03-15T03:30:15.054Z,93745.53
2023-03-15T03:33:11.411Z,93736.03
2023-03-15T03:36:04.461Z,93734.72
2023-03-15T03:38:50.259Z,93733.88
2023-03-15T03:41:40.011Z,93733.81
2023-03-15T03:44:32.335Z,93739.94
2023-03-15T03:47:21.997Z,93741.97
2023-03-15T03:50:14.565Z,93731.88
2023-03-15T03:53:04.910Z,93730.22
2023-03-15T03:55:58.472Z,93728.34
2023-03-15T03:58:50.118Z,93724.00
2023-03-15T04:01:42.142Z,93725.94
2023-03-15T04:04:32.328Z,93725.06
2023-03-15T04:07:22.223Z,93726.75
2023-03-15T04:10:09.803Z,93718.63
2023-03-15T04:12:54.094Z,93712.59
2023-03-15T04:15:43.136Z,93719.03
2023-03-15T04:18:27.820Z,93698.69
2023-03-15T04:21:12.744Z,93706.06
2023-03-15T04:24:01.960Z,93704.66
2023-03-15T04:26:49.207Z,93702.63
2023-03-15T04:29:33.358Z,93700.63
2023-03-15T04:32:20.235Z,93704.19
2023-03-15T04:35:04.755Z,93705.69
2023-03-15T04:37:52.157Z,93697.34
2023-03-15T04:40:37.877Z,93700.63
2023-03-15T04:43:25.566Z,93703.66
2023-03-15T04:46:15.398Z,93706.66
2023-03-15T04:49:07.721Z,93709.78
2023-03-15T04:51:55.081Z,93715.19
2023-03-15T04:54:48.816Z,93709.63
2023-03-15T04:57:38.158Z,93712.69
2023-03-15T05:00:28.500Z,93713.75
2023-03-15T05:03:14.014Z,93712.50
2023-03-15T05:06:01.559Z,93708.78
2023-03-15T05:08:50.174Z,93712.25
2023-03-15T05:11:37.924Z,93713.38
2023-03-15T05:14:30.913Z,93711.28
2023-03-15T05:17:20.496Z,93707.97
2023-03-15T05:20:12.675Z,93697.16
2023-03-15T05:23:03.746Z,93705.03
2023-03-15T05:25:59.832Z,93697.78
2023-03-15T05:28:54.249Z,93702.59
2023-03-15T05:31:44.366Z,93704.06
2023-03-15T05:34:38.549Z,93693.06
2023-03-15T05:37:28.010Z,93694.22
2023-03-15T05:40:18.192Z,93691.19
2023-03-15T05:43:06.657Z,93696.78
2023-03-15T05:45:51.585Z,93695.53
2023-03-15T05:48:45.152Z,93690.81
2023-03-15T05:51:47.693Z,93692.81
2023-03-15T05:54:38.904Z,93691.22
2023-03-15T05:57:27.917Z,93701.94
2023-03-15T06:00:19.781Z,93703.78
2023-03-15T06:03:13.290Z,93705.94
2023-03-15T06:06:13.032Z,93699.06
2023-03-15T06:09:04.996Z,93687.22
2023-03-15T06:11:56.948Z,93699.19
2023-03-15T06:14:43.368Z,93697.69
2023-03-15T06:17:34.909Z,93695.53
2023-03-15T06:20:26.592Z,93677.78
2023-03-15T06:23:16.660Z,93678.69
2023-03-15T06:26:06.821Z,93685.00
2023-03-15T06:28:56.862Z,93677.25
2023-03-15T06:31:48.262Z,93674.47
2023-03-15T06:34:41.185Z,93673.72
2023-03-15T06:37:35.430Z,93679.97
2023-03-15T06:40:26.674Z,93671.59
2023-03-15T06:43:23.419Z,93681.41
2023-03-15T06:46:17.968Z,93678.25
2023-03-15T06:49:10.893Z,93678.09
2023-03-15T06:52:05.763Z,93677.31
2023-03-15T06:54:51.922Z,93670.81
2023-03-15T06:57:37.659Z,93672.91
2023-03-15T07:00:26.492Z,93663.09
2023-03-15T07:03:13.256Z,93653.34
2023-03-15T07:05:59.707Z,93640.38
2023-03-15T07:08:46.099Z,93655.75
2023-03-15T07:11:33.416Z,93663.13
2023-03-15T07:14:24.135Z,93661.75
2023-03-15T07:17:17.695Z,93659.72
2023-03-15T07:20:02.027Z,93661.19
2023-03-15T07:22:50.156Z,93657.16
2023-03-15T07:25:48.248Z,93665.66
2023-03-15T07:28:36.140Z,93656.75
2023-03-15T07:31:19.837Z,93645.81
2023-03-15T07:34:05.036Z,93645.19
2023-03-15T07:37:00.334Z,93645.69
2023-03-15T07:39:46.979Z,93663.63
2023-03-15T07:42:36.263Z,93665.94
2023-03-15T07:45:31.108Z,93666.09
2023-03-15T07:48:24.589Z,93670.53
2023-03-15T07:51:18.857Z,93659.53
2023-03-15T07:54:13.466Z,93647.19
2023-03-15T07:57:05.301Z,93660.06
2023-03-15T07:59:56.991Z,93651.09
2023-03-15T08:02:49.288Z,93648.25
2023-03-15T08:05:40.444Z,93648.88
2023-03-15T08:08:28.305Z,93644.00
2023-03-15T08:11:18.086Z,93646.53
2023-03-15T08:14:12.044Z,93640.97
2023-03-15T08:17:01.931Z,93633.63
2023-03-15T08:19:52.751Z,93628.81
2023-03-15T08:22:40.932Z,93615.34
2023-03-15T08:25:33.807Z,93616.09
2023-03-15T08:28:28.407Z,93619.56
2023-03-15T08:31:19.612Z,93623.97
2023-03-15T08:34:07.566Z,93629.19
2023-03-15T08:36:57.765Z,93630.06
2023-03-15T08:39:52.941Z,93627.66
2023-03-15T08:42:48.791Z,93622.66
2023-03-15T08:45:59.727Z,93629.25
2023-03-15T08:48:51.414Z,93611.00
2023-03-15T08:51:45.099Z,93611.50
2023-03-15T08:54:37.186Z,93615.97
2023-03-15T08:57:30.182Z,93620.66
2023-03-15T09:00:23.515Z,93625.88
2023-03-15T09:03:16.053Z,93631.19
2023-03-15T09:06:05.074Z,93626.38
2023-03-15T09:08:59.256Z,93622.84
2023-03-15T09:11:52.753Z,93627.81
2023-03-15T09:14:38.493Z,93620.31
2023-03-15T09:17:27.564Z,93628.06
2023-03-15T09:20:22.735Z,93628.41
2023-03-15T09:23:14.155Z,93634.47
2023-03-15T09:26:06.321Z,93636.94
2023-03-15T09:28:54.540Z,93639.63
2023-03-15T09:31:46.073Z,93624.34
2023-03-15T09:34:43.406Z,93619.59
2023-03-15T09:37:35.230Z,93623.78
2023-03-15T09:40:27.703Z,93607.59
2023-03-15T09:43:46.653Z,93609.03
2023-03-15T09:46:39.622Z,93608.16
2023-03-15T09:49:46.454Z,93604.50
2023-03-15T09:52:46.083Z,93598.41
2023-03-15T09:55:37.267Z,93592.28
2023-03-15T09:58:33.838Z,93601.50
2023-03-15T10:01:26.641Z,93588.41
2023-03-15T10:04:28.992Z,93591.69
2023-03-15T10:07:23.000Z,93597.00
2023-03-15T10:10:20.137Z,93590.59
2023-03-15T10:13:26.900Z,93595.31
2023-03-15T10:16:31.136Z,93591.81
2023-03-15T10:19:30.072Z,93588.41
2023-03-15T10:22:31.465Z,93592.22
2023-03-15T10:25:25.646Z,93585.97
2023-03-15T10:28:20.152Z,93591.84
2023-03-15T10:31:21.594Z,93587.91
2023-03-15T10:34:14.299Z,93587.47
2023-03-15T10:37:06.174Z,93589.56
2023-03-15T10:40:00.685Z,93591.41
2023-03-15T10:42:50.709Z,93587.41
2023-03-15T10:45:39.294Z,93581.25
2023-03-15T10:48:25.025Z,93586.50
2023-03-15T10:51:17.036Z,93580.13
2023-03-15T10:54:03.838Z,93577.81
2023-03-15T10:57:03.312Z,93575.84
2023-03-15T11:00:07.256Z,93579.00
2023-03-15T11:02:57.807Z,93581.97
2023-03-15T11:05:51.999Z,93580.66
2023-03-15T11:08:48.733Z,93576.88
2023-03-15T11:11:59.259Z,93579.16
2023-03-15T11:14:49.504Z,93580.16
2023-03-15T11:17:48.268Z,93575.53
2023-03-15T11:20:46.086Z,93570.78
2023-03-15T11:23:36.535Z,93567.50
2023-03-15T11:26:32.650Z,93567.78
2023-03-15T11:29:26.145Z,93565.88
2023-03-15T11:32:19.700Z,93565.81
2023-03-15T11:35:10.502Z,93561.13
2023-03-15T11:38:14.517Z,93562.84
2023-03-15T11:41:03.303Z,93561.28
2023-03-15T11:44:09.066Z,93570.25
2023-03-15T11:47:07.288Z,93563.25
2023-03-15T11:50:01.214Z,93549.88
2023-03-15T11:52:52.292Z,93556.94
2023-03-15T11:55:44.121Z,93554.22
2023-03-15T11:58:41.005Z,93559.06
2023-03-15T12:01:34.752Z,93556.19
2023-03-15T12:04:48.094Z,93557.44
2023-03-15T12:08:22.973Z,93539.03
2023-03-15T12:11:15.975Z,93534.00
2023-03-15T12:14:13.687Z,93531.81
2023-03-15T12:17:31.927Z,93531.91
2023-03-15T12:20:37.926Z,93526.94
2023-03-15T12:23:34.402Z,93527.31
2023-03-15T12:26:31.009Z,93534.59
2023-03-15T12:29:27.903Z,93534.91
2023-03-15T12:32:22.157Z,93524.44
2023-03-15T12:35:21.413Z,93525.84
2023-03-15T12:38:17.020Z,93516.97
2023-03-15T12:41:12.384Z,93523.13
2023-03-15T12:44:29.614Z,93517.03
2023-03-15T12:47:22.221Z,93518.81
2023-03-15T12:50:40.474Z,93517.31
2023-03-15T12:53:46.354Z,93518.13
2023-03-15T12:56:48.621Z,93513.34
2023-03-15T12:59:45.363Z,93512.25
2023-03-15T13:02:44.228Z,93508.72
2023-03-15T13:05:39.333Z,93513.06
2023-03-15T13:08:37.890Z,93501.63
2023-03-15T13:11:34.289Z,93499.97
2023-03-15T13:14:46.572Z,93516.34
2023-03-15T13:17:47.087Z,93504.47
2023-03-15T13:20:50.274Z,93504.75
2023-03-15T13:23:43.730Z,93510.16
2023-03-15T13:26:53.820Z,93511.41
2023-03-15T13:29:46.721Z,93511.13
2023-03-15T13:32:37.438Z,93513.13
2023-03-15T13:35:27.457Z,93513.28
2023-03-15T13:38:30.113Z,93517.59
2023-03-15T13:41:31.464Z,93522.19
2023-03-15T13:44:27.405Z,93519.66
2023-03-15T13:47:24.418Z,93517.63
2023-03-15T13:50:18.178Z,93515.44
2023-03-15T13:53:02.764Z,93509.88
2023-03-15T13:55:57.823Z,93512.66
2023-03-15T13:58:52.795Z,93527.34
2023-03-15T14:01:45.883Z,93523.66
2023-03-15T14:04:42.835Z,93519.84
2023-03-15T14:07:34.427Z,93514.47
2023-03-15T14:10:38.578Z,93509.69
2023-03-15T14:13:29.600Z,93513.63
2023-03-15T14:16:53.244Z,93517.91
2023-03-15T14:19:59.396Z,93520.47
2023-03-15T14:22:51.271Z,93514.56
2023-03-15T14:25:44.466Z,93505.63
2023-03-15T14:28:35.100Z,93514.41
2023-03-15T14:31:29.970Z,93513.25
2023-03-15T14:34:29.466Z,93506.19
2023-03-15T14:37:36.413Z,93505.34
2023-03-15T14:40:22.706Z,93494.59
2023-03-15T14:43:07.794Z,93504.59
2023-03-15T14:45:51.665Z,93501.22
2023-03-15T14:48:37.161Z,93511.72
2023-03-15T14:51:23.442Z,93511.97
2023-03-15T14:54:09.050Z,93500.63
2023-03-15T14:56:53.101Z,93504.78
2023-03-15T14:59:37.054Z,93509.09
2023-03-15T15:02:21.155Z,93504.34
2023-03-15T15:05:19.858Z,93502.78
2023-03-15T15:08:07.343Z,93508.00
2023-03-15T15:10:53.684Z,93515.41
2023-03-15T15:13:38.761Z,93510.28
2023-03-15T15:16:22.622Z,93511.06
2023-03-15T15:19:06.795Z,93513.50
2023-03-15T15:21:52.709Z,93507.75
2023-03-15T15:24:37.248Z,93520.38
2023-03-15T15:27:21.375Z,93517.81
2023-03-15T15:30:06.048Z,93528.56
2023-03-15T15:32:50.169Z,93537.44
2023-03-15T15:35:35.409Z,93531.94
2023-03-15T15:38:21.122Z,93537.19
2023-03-15T15:41:05.292Z,93537.97
2023-03-15T15:43:48.949Z,93532.00
2023-03-15T15:46:32.893Z,93538.44
2023-03-15T15:49:17.298Z,93548.59
2023-03-15T15:52:01.276Z,93549.66
2023-03-15T15:54:48.698Z,93554.03
2023-03-15T15:57:33.453Z,93557.97
2023-03-15T16:00:20.380Z,93562.13
2023-03-15T16:03:04.723Z,93560.56
2023-03-15T16:05:48.529Z,93562.88
2023-03-15T16:08:35.911Z,93568.84
2023-03-15T16:11:22.894Z,93568.34
2023-03-15T16:14:06.711Z,93577.66
2023-03-15T16:16:50.650Z,93567.72
2023-03-15T16:19:34.731Z,93578.13
2023-03-15T16:22:20.217Z,93577.06
2023-03-15T16:25:11.737Z,93570.28
2023-03-15T16:27:58.341Z,93578.91
2023-03-15T16:30:44.730Z,93588.47
2023-03-15T16:33:29.838Z,93587.19
2023-03-15T16:36:21.595Z,93592.88
2023-03-15T16:39:06.036Z,93595.97
2023-03-15T16:41:52.423Z,93604.00
2023-03-15T16:44:38.168Z,93610.69
2023-03-15T16:47:23.068Z,93609.59
2023-03-15T16:50:07.474Z,93612.41
2023-03-15T16:52:54.711Z,93622.13
2023-03-15T16:55:39.681Z,93617.88
2023-03-15T16:58:23.493Z,93626.44
2023-03-15T17:01:11.303Z,93628.84
2023-03-15T17:03:56.029Z,93631.19
2023-03-15T17:06:41.158Z,93636.13
2023-03-15T17:09:25.978Z,93637.19
2023-03-15T17:12:16.201Z,93637.91
2023-03-15T17:15:01.605Z,93644.16
2023-03-15T17:17:48.015Z,93649.44
2023-03-15T17:20:32.812Z,93651.97
2023-03-15T17:23:21.538Z,93650.91
2023-03-15T17:26:06.342Z,93654.19
2023-03-15T17:28:50.756Z,93658.03
2023-03-15T17:31:36.322Z,93660.69
2023-03-15T17:34:25.192Z,93662.69
2023-03-15T17:37:10.814Z,93674.66
2023-03-15T17:39:54.933Z,93675.69
2023-03-15T17:42:38.625Z,93681.59
2023-03-15T17:45:26.984Z,93676.06
2023-03-15T17:48:11.328Z,93678.53
2023-03-15T17:50:56.829Z,93684.56
2023-03-15T17:53:40.548Z,93680.59
2023-03-15T17:56:24.509Z,93687.06
2023-03-15T17:59:08.537Z,93687.72
2023-03-15T18:01:52.699Z,93687.72
2023-03-15T18:04:37.504Z,93699.97
2023-03-15T18:07:26.459Z,93698.41
2023-03-15T18:10:12.886Z,93701.25
2023-03-15T18:12:56.838Z,93705.09
2023-03-15T18:15:40.649Z,93704.91
2023-03-15T18:18:24.404Z,93708.47
2023-03-15T18:21:13.958Z,93712.88
2023-03-15T18:24:00.978Z,93709.38
2023-03-15T18:26:44.695Z,93713.69
2023-03-15T18:29:28.617Z,93716.66
2023-03-15T18:32:12.872Z,93714.41
2023-03-15T18:34:57.457Z,93712.25
2023-03-15T18:37:41.396Z,93713.34
2023-03-15T18:40:29.302Z,93718.53
2023-03-15T18:43:16.598Z,93717.78
2023-03-15T18:46:00.532Z,93723.59
2023-03-15T18:48:45.576Z,93721.06
2023-03-15T18:51:29.759Z,93726.56
2023-03-15T18:54:13.989Z,93724.03
2023-03-15T18:56:59.599Z,93729.16
2023-03-15T18:59:43.359Z,93726.56
2023-03-15T19:02:31.041Z,93733.13
2023-03-15T19:05:16.173Z,93742.47
2023-03-15T19:08:02.406Z,93736.59
2023-03-15T19:10:47.570Z,93746.06
2023-03-15T19:13:34.521Z,93739.38
2023-03-15T19:16:18.844Z,93738.91
2023-03-15T19:19:02.896Z,93737.34
2023-03-15T19:21:46.785Z,93745.53
2023-03-15T19:24:33.483Z,93751.50
2023-03-15T19:27:18.192Z,93747.88
2023-03-15T19:30:09.192Z,93762.78
2023-03-15T19:32:53.210Z,93757.28
2023-03-15T19:35:37.145Z,93755.88
2023-03-15T19:38:21.759Z,93760.09
2023-03-15T19:41:06.239Z,93758.28
2023-03-15T19:43:50.188Z,93771.84
2023-03-15T19:46:35.860Z,93773.41
2023-03-15T19:49:20.281Z,93774.75
2023-03-15T19:52:07.610Z,93778.44
2023-03-15T19:54:52.843Z,93783.16
2023-03-15T19:57:37.044Z,93783.72
2023-03-15T20:00:24.038Z,93791.94
2023-03-15T20:03:09.626Z,93787.38
2023-03-15T20:05:53.592Z,93791.13
2023-03-15T20:08:37.928Z,93792.09
2023-03-15T20:11:26.289Z,93792.66
2023-03-15T20:14:10.185Z,93789.50
2023-03-15T20:16:54.025Z,93787.94
2023-03-15T20:19:39.772Z,93789.91
2023-03-15T20:22:23.440Z,93798.28
2023-03-15T20:25:10.125Z,93792.72
2023-03-15T20:28:04.323Z,93802.44
2023-03-15T20:30:47.802Z,93801.19
2023-03-15T20:33:32.006Z,93800.19
2023-03-15T20:36:17.784Z,93805.41
2023-03-15T20:39:01.892Z,93813.50
2023-03-15T20:41:45.997Z,93811.38
2023-03-15T20:44:32.445Z,93812.06
2023-03-15T20:47:17.575Z,93817.00
2023-03-15T20:50:01.839Z,93814.13
2023-03-15T20:52:47.542Z,93821.00
2023-03-15T20:55:32.030Z,93827.22
2023-03-15T20:58:16.145Z,93826.69
2023-03-15T21:01:09.003Z,93827.19
2023-03-15T21:03:55.024Z,93826.06
2023-03-15T21:06:39.177Z,93831.72
2023-03-15T21:09:24.652Z,93840.84
2023-03-15T21:12:09.234Z,93843.81
2023-03-15T21:14:53.638Z,93841.69
2023-03-15T21:17:37.868Z,93844.75
2023-03-15T21:20:21.804Z,93850.38
2023-03-15T21:23:05.962Z,93853.59
2023-03-15T21:25:55.916Z,93854.84
2023-03-15T21:28:40.076Z,93869.44
2023-03-15T21:31:23.472Z,93870.56
2023-03-15T21:34:06.924Z,93873.00
2023-03-15T21:36:50.272Z,93881.94
2023-03-15T21:39:34.272Z,93886.53
2023-03-15T21:42:19.981Z,93886.63
2023-03-15T21:45:09.193Z,93890.53
2023-03-15T21:47:53.218Z,93895.53
2023-03-15T21:50:37.127Z,93905.34
2023-03-15T21:53:21.146Z,93897.53
2023-03-15T21:56:07.711Z,93898.94
2023-03-15T21:58:53.963Z,93903.69
2023-03-15T22:01:38.973Z,93899.50
2023-03-15T22:04:24.835Z,93907.09
2023-03-15T22:07:08.620Z,93917.66
2023-03-15T22:09:53.455Z,93925.13
2023-03-15T22:12:37.865Z,93933.19
2023-03-15T22:15:23.695Z,93917.00
2023-03-15T22:18:53.084Z,93938.44
2023-03-15T22:21:36.997Z,93930.53
2023-03-15T22:24:22.262Z,93933.69
2023-03-15T22:27:06.293Z,93954.13
2023-03-15T22:29:50.670Z,93940.47
2023-03-15T22:32:38.625Z,93945.97
2023-03-15T22:35:23.192Z,93954.75
2023-03-15T22:38:10.527Z,93953.34
2023-03-15T22:41:04.484Z,93962.72
2023-03-15T22:43:48.572Z,93951.69
2023-03-15T22:46:34.955Z,93962.13
2023-03-15T22:49:20.512Z,93966.16
2023-03-15T22:52:04.161Z,93974.69
2023-03-15T22:54:48.822Z,93971.59
2023-03-15T22:57:32.699Z,93970.53
2023-03-15T23:00:19.979Z,93981.22
2023-03-15T23:03:04.481Z,93977.47
2023-03-15T23:05:49.994Z,93979.09
2023-03-15T23:08:34.200Z,93980.72
2023-03-15T23:11:18.168Z,93981.66
2023-03-15T23:14:02.149Z,93990.16
2023-03-15T23:16:46.212Z,93983.47
2023-03-15T23:19:30.267Z,93985.06
2023-03-15T23:22:16.161Z,93993.19
2023-03-15T23:25:00.144Z,93998.13
2023-03-15T23:27:44.537Z,93996.56
2023-03-15T23:30:35.485Z,93999.53
2023-03-15T23:33:20.160Z,93999.53
2023-03-15T23:36:04.771Z,94000.50
2023-03-15T23:38:50.846Z,94008.00
2023-03-15T23:41:36.105Z,94013.16
2023-03-15T23:44:19.862Z,94013.38
2023-03-15T23:47:06.082Z,94014.38
2023-03-15T23:49:50.526Z,94015.53
2023-03-15T23:52:34.533Z,94024.81
2023-03-15T23:55:20.749Z,94027.59
2023-03-15T23:58:07.211Z,94029.00
